Terminal Aerodrome Forecast
Issued by NWS Twin Cities, MN

Home | Current Version | Previous Version | Text Only | Print | Product List | Glossary Off
Versions: 1 2 3 4 5 6 7 8 9 10 11 12 13 14 15 16 17 18 19 20 21 22 23 24

628
FTUS43 KMPX 171720
TAFMSP
TAF
KMSP 171720Z 1718/1824 15006KT P6SM SKC
     FM172000 18007KT P6SM SKC
     FM180000 23006KT P6SM FEW200
     FM181300 29004KT P6SM FEW200
     FM181900 27006KT P6SM BKN200=

USA.gov is the U.S. government's official web portal to all federal, state and local government web resources and services.